Time;durP1;ratioP1;P1;durP2;ratioP2;P2;SDS_P1;SDS_P2;PMS_P1;PMS_P2;Temp;Humidity;BMP_temperature;BMP_pressure;BME280_temperature;BME280_humidity;BME280_pressure;Samples;Min_cycle;Max_cycle;Signal;HPM_P1;HPM_P2
2021/07/24 00:00:44;;;;;;;;;;;17.60;99.90;;;;;;2076883;22;19958;-82
2021/07/24 00:03:13;;;;;;;;;;;17.50;99.90;;;;;;4116185;22;19944;-83
2021/07/24 00:06:05;;;;;;;;;;;17.40;99.90;;;;;;2069420;22;19941;-84
2021/07/24 00:11:52;;;;;;;;;;;17.40;99.90;;;;;;2084020;22;19931;-83
2021/07/24 00:17:32;;;;;;;;;;;17.30;99.90;;;;;;2082900;22;19996;-82
2021/07/24 00:23:21;;;;;;;;;;;17.30;99.90;;;;;;2082061;22;19950;-82
2021/07/24 00:29:08;;;;;;;;;;;17.30;99.90;;;;;;2083656;22;19950;-82
2021/07/24 00:31:37;;;;;;;;;;;17.30;99.90;;;;;;3710187;22;20911;31
2021/07/24 00:39:55;;;;;;;;;;;17.20;99.90;;;;;;1930865;22;20064;-82
2021/07/24 00:42:48;;;;;;;;;;;17.20;99.90;;;;;;2076017;22;19930;-83
2021/07/24 00:48:30;;;;;;;;;;;17.10;99.90;;;;;;2084652;22;19952;-83
2021/07/24 00:57:28;;;;;;;;;;;16.90;99.90;;;;;;2085072;22;20076;-82
2021/07/24 00:59:57;;;;;;;;;;;16.80;99.90;;;;;;3691113;22;20816;31
2021/07/24 01:05:25;;;;;;;;;;;16.70;99.90;;;;;;1643889;22;23319;31
2021/07/24 01:10:49;;;;;;;;;;;16.80;99.90;;;;;;1931045;22;20119;-83
2021/07/24 01:13:41;;;;;;;;;;;16.80;99.90;;;;;;2068778;22;20004;-82
2021/07/24 01:28:30;;;;;;;;;;;16.80;99.90;;;;;;2082499;22;19941;-82
2021/07/24 01:34:17;;;;;;;;;;;16.80;99.90;;;;;;2085328;22;19989;-83
2021/07/24 01:39:58;;;;;;;;;;;16.70;99.90;;;;;;2083575;22;19959;-84
2021/07/24 01:45:47;;;;;;;;;;;16.70;99.90;;;;;;2083401;22;19935;-82
2021/07/24 01:57:44;;;;;;;;;;;16.60;99.90;;;;;;2083260;22;19938;-83
2021/07/24 02:03:31;;;;;;;;;;;16.50;99.90;;;;;;2083624;22;19955;-83
2021/07/24 02:06:18;;;;;;;;;;;16.40;99.90;;;;;;3693154;22;20821;31
2021/07/24 02:09:24;;;;;;;;;;;16.50;99.90;;;;;;2073824;22;19942;-82
2021/07/24 02:15:18;;;;;;;;;;;16.40;99.90;;;;;;2084138;22;19938;-82
2021/07/24 02:20:52;;;;;;;;;;;16.40;99.90;;;;;;2125748;22;20388;-82
2021/07/24 02:26:32;;;;;;;;;;;16.30;99.90;;;;;;2083234;22;19989;-81
2021/07/24 02:40:51;;;;;;;;;;;16.20;99.90;;;;;;1696864;22;20091;-82
2021/07/24 02:43:43;;;;;;;;;;;16.20;99.90;;;;;;2068012;22;19935;-81
2021/07/24 02:49:24;;;;;;;;;;;16.10;99.90;;;;;;2083202;22;19931;-82
2021/07/24 02:54:44;;;;;;;;;;;16.10;99.90;;;;;;1929273;22;20064;-81
2021/07/24 02:57:36;;;;;;;;;;;16.10;99.90;;;;;;2073604;22;19943;-83
2021/07/24 03:03:16;;;;;;;;;;;16.00;99.90;;;;;;1543601;22;22084;-81
2021/07/24 03:06:09;;;;;;;;;;;15.90;99.90;;;;;;2068245;22;19931;-83
2021/07/24 03:11:56;;;;;;;;;;;15.90;99.90;;;;;;2083476;22;19930;-82
2021/07/24 03:20:13;;;;;;;;;;;15.90;99.90;;;;;;2128680;22;20330;-83
2021/07/24 03:25:54;;;;;;;;;;;15.80;99.90;;;;;;2084232;22;19935;-82
2021/07/24 03:34:40;;;;;;;;;;;15.80;99.90;;;;;;2077801;22;19965;-83
2021/07/24 03:40:02;;;;;;;;;;;15.80;99.90;;;;;;2136108;22;20084;-83
2021/07/24 03:45:50;;;;;;;;;;;15.80;99.90;;;;;;2083166;22;20863;-83
2021/07/24 03:51:37;;;;;;;;;;;15.90;99.90;;;;;;2084154;22;19946;-83
2021/07/24 03:54:29;;;;;;;;;;;16.00;99.90;;;;;;2066311;22;19938;-82
2021/07/24 04:00:17;;;;;;;;;;;16.20;99.90;;;;;;2085042;22;19934;-83
2021/07/24 04:12:04;;;;;;;;;;;16.70;99.90;;;;;;2085404;22;19976;-83
2021/07/24 04:17:51;;;;;;;;;;;16.90;99.90;;;;;;2083123;22;19947;-82
2021/07/24 04:20:43;;;;;;;;;;;16.80;99.90;;;;;;3718147;22;20841;-81
2021/07/24 04:26:07;;;;;;;;;;;16.90;99.90;;;;;;1698679;22;20087;-81
2021/07/24 04:28:59;;;;;;;;;;;17.00;99.90;;;;;;2059143;22;20050;-85
2021/07/24 04:37:34;;;;;;;;;;;17.30;99.90;;;;;;2083545;22;19931;-82
2021/07/24 04:46:12;;;;;;;;;;;17.90;99.90;;;;;;2085536;22;21004;-82
2021/07/24 04:51:52;;;;;;;;;;;18.40;99.90;;;;;;2083618;22;19930;-84
2021/07/24 04:57:40;;;;;;;;;;;18.70;99.90;;;;;;2085656;22;21506;-84
2021/07/24 05:03:20;;;;;;;;;;;19.10;99.90;;;;;;2084711;22;19971;-83
2021/07/24 05:09:01;;;;;;;;;;;19.50;99.90;;;;;;2084600;22;19955;-83
2021/07/24 05:17:36;;;;;;;;;;;19.90;99.90;;;;;;2084072;22;19967;-83
2021/07/24 05:25:49;;;;;;;;;;;20.50;99.90;;;;;;1696975;22;20068;-82
2021/07/24 05:34:29;;;;;;;;;;;21.10;99.90;;;;;;2082198;22;19948;-83
2021/07/24 05:40:17;;;;;;;;;;;21.40;99.90;;;;;;2082264;22;19930;-81
2021/07/24 05:42:46;;;;;;;;;;;21.60;99.90;;;;;;4105841;22;19944;-81
2021/07/24 05:45:39;;;;;;;;;;;21.80;99.90;;;;;;2082257;22;20039;-81
2021/07/24 05:56:43;;;;;;;;;;;22.40;99.90;;;;;;1879742;22;21526;31
2021/07/24 06:02:25;;;;;;;;;;;22.80;99.90;;;;;;2084405;22;19945;-81
2021/07/24 06:08:07;;;;;;;;;;;23.30;99.90;;;;;;2085144;22;19946;-81
2021/07/24 06:16:32;;;;;;;;;;;23.80;99.90;;;;;;2051873;22;21292;-81
2021/07/24 06:22:14;;;;;;;;;;;24.40;99.90;;;;;;2078891;22;19931;-80
2021/07/24 06:28:01;;;;;;;;;;;24.40;99.90;;;;;;2077722;22;19935;-82
2021/07/24 06:33:41;;;;;;;;;;;24.30;99.90;;;;;;2074939;22;19948;-81
2021/07/24 06:36:17;;;;;;;;;;;24.40;99.90;;;;;;3787162;22;19956;-82
2021/07/24 06:39:09;;;;;;;;;;;24.50;99.90;;;;;;2068215;22;19956;-84
2021/07/24 06:50:33;;;;;;;;;;;24.80;99.90;;;;;;1334136;22;21330;31
2021/07/24 06:56:20;;;;;;;;;;;25.40;99.90;;;;;;2084895;22;19981;-83
2021/07/24 07:02:03;;;;;;;;;;;25.80;99.90;;;;;;2076433;22;19956;-82
2021/07/24 07:07:28;;;;;;;;;;;26.10;99.90;;;;;;1797550;22;21314;31
2021/07/24 07:21:57;;;;;;;;;;;26.90;99.90;;;;;;2076530;22;19934;-81
2021/07/24 07:24:26;;;;;;;;;;;27.20;99.90;;;;;;3692209;22;20884;31
2021/07/24 07:32:54;;;;;;;;;;;27.90;99.90;;;;;;1685574;22;20157;-78
2021/07/24 07:35:47;;;;;;;;;;;28.10;99.90;;;;;;2061278;22;19952;-79
2021/07/24 07:44:24;;;;;;;;;;;28.50;99.90;;;;;;2070325;22;19927;-81
2021/07/24 07:50:04;;;;;;;;;;;28.80;99.90;;;;;;2068951;22;19935;-82
2021/07/24 07:55:52;;;;;;;;;;;28.90;99.90;;;;;;2069305;22;19931;-81
2021/07/24 08:13:19;;;;;;;;;;;29.50;99.90;;;;;;2063876;22;19986;-82
2021/07/24 08:18:59;;;;;;;;;;;29.70;99.50;;;;;;2069162;22;19946;-82
2021/07/24 08:24:39;;;;;;;;;;;29.80;98.90;;;;;;2068688;22;19935;-83
2021/07/24 08:27:07;;;;;;;;;;;29.90;98.10;;;;;;3699674;22;20920;31
2021/07/24 08:29:45;;;;;;;;;;;30.00;98.20;;;;;;1299667;22;20140;-81
2021/07/24 08:32:37;;;;;;;;;;;30.10;97.80;;;;;;2053238;22;19938;-82
2021/07/24 08:38:24;;;;;;;;;;;30.20;96.60;;;;;;2068568;22;19939;-82
2021/07/24 08:43:47;;;;;;;;;;;30.30;96.80;;;;;;1864375;22;21245;31
2021/07/24 08:46:40;;;;;;;;;;;30.30;95.50;;;;;;2058733;22;19931;-82
2021/07/24 08:49:34;;;;;;;;;;;30.30;95.80;;;;;;3655892;23;20870;-83
2021/07/24 08:52:02;;;;;;;;;;;30.50;96.30;;;;;;3964405;22;19972;-82
2021/07/24 08:54:55;;;;;;;;;;;30.60;96.50;;;;;;2066530;22;19942;-85
2021/07/24 08:57:47;;;;;;;;;;;30.70;95.30;;;;;;3668221;22;19940;-81
2021/07/24 09:00:39;;;;;;;;;;;31.00;94.10;;;;;;2058571;22;19935;-80
2021/07/24 09:03:31;;;;;;;;;;;30.80;93.00;;;;;;2046483;22;19939;-81
2021/07/24 09:11:47;;;;;;;;;;;30.90;92.60;;;;;;2067443;22;19931;-82
2021/07/24 09:14:14;;;;;;;;;;;30.90;92.00;;;;;;3888692;22;19936;31
2021/07/24 09:17:07;;;;;;;;;;;30.70;91.20;;;;;;2065768;22;19939;-81
2021/07/24 09:22:47;;;;;;;;;;;30.60;91.50;;;;;;2066876;22;19935;-82
2021/07/24 09:28:11;;;;;;;;;;;30.70;91.10;;;;;;1784003;22;21373;31
2021/07/24 09:31:04;;;;;;;;;;;30.80;90.70;;;;;;2074263;22;19934;-82
2021/07/24 09:36:51;;;;;;;;;;;30.90;90.10;;;;;;2068871;22;19935;-82
2021/07/24 09:42:31;;;;;;;;;;;31.10;89.50;;;;;;2066838;22;19952;-82
2021/07/24 09:45:06;;;;;;;;;;;31.10;88.60;;;;;;3894966;22;19935;31
2021/07/24 09:47:41;;;;;;;;;;;31.00;89.40;;;;;;1298238;22;20077;-81
2021/07/24 09:53:09;;;;;;;;;;;30.80;89.20;;;;;;1779936;22;21306;31
2021/07/24 10:01:56;;;;;;;;;;;31.10;88.50;;;;;;2056663;22;19938;-84
2021/07/24 10:04:49;;;;;;;;;;;31.30;88.10;;;;;;2059043;22;19945;-81
2021/07/24 10:13:00;;;;;;;;;;;31.50;87.10;;;;;;2104576;22;20811;-82
2021/07/24 10:15:40;;;;;;;;;;;31.40;85.90;;;;;;4071481;22;19940;-82
2021/07/24 10:18:35;;;;;;;;;;;31.40;85.30;;;;;;2056753;22;20016;-81
2021/07/24 10:21:10;;;;;;;;;;;31.50;86.30;;;;;;3784059;22;20437;-82
2021/07/24 10:23:38;;;;;;;;;;;31.40;85.30;;;;;;3700887;23;19933;-82
2021/07/24 10:26:30;;;;;;;;;;;31.30;86.80;;;;;;2047404;23;20052;-83
2021/07/24 10:29:22;;;;;;;;;;;31.30;86.60;;;;;;3656351;22;20835;-82
2021/07/24 10:37:51;;;;;;;;;;;31.50;83.00;;;;;;1902160;23;20117;-83
2021/07/24 10:43:31;;;;;;;;;;;31.50;82.80;;;;;;2053533;22;19943;-82
2021/07/24 10:46:00;;;;;;;;;;;31.50;83.10;;;;;;3847546;22;20784;31
2021/07/24 10:48:53;;;;;;;;;;;31.60;82.70;;;;;;2065712;22;19943;-83
2021/07/24 10:54:40;;;;;;;;;;;31.40;82.00;;;;;;2071733;22;19935;-83
2021/07/24 10:57:14;;;;;;;;;;;31.50;81.30;;;;;;3852836;22;19933;-81
2021/07/24 11:00:06;;;;;;;;;;;31.50;81.20;;;;;;2056673;22;20867;-82
2021/07/24 11:05:53;;;;;;;;;;;31.50;80.90;;;;;;2052857;23;21702;-81
2021/07/24 11:08:41;;;;;;;;;;;31.60;81.70;;;;;;1686800;22;20073;-80
2021/07/24 11:14:21;;;;;;;;;;;31.30;81.10;;;;;;2070647;22;19961;-82
2021/07/24 11:17:07;;;;;;;;;;;31.30;80.00;;;;;;3986109;22;19928;-83
2021/07/24 11:19:36;;;;;;;;;;;31.40;80.00;;;;;;1908245;22;20088;-82
2021/07/24 11:22:31;;;;;;;;;;;31.30;80.10;;;;;;2054750;22;19938;-83
2021/07/24 11:27:54;;;;;;;;;;;31.40;79.40;;;;;;1485871;22;21325;31
2021/07/24 11:30:47;;;;;;;;;;;31.40;78.80;;;;;;2058928;22;19941;-83
2021/07/24 11:38:59;;;;;;;;;;;31.20;75.90;;;;;;1675653;22;20124;-82
2021/07/24 11:41:30;;;;;;;;;;;31.20;76.40;;;;;;1882246;23;20190;-81
2021/07/24 11:47:01;;;;;;;;;;;31.10;76.20;;;;;;1926606;22;21310;31
2021/07/24 11:52:35;;;;;;;;;;;31.10;78.10;;;;;;1296900;22;20089;-80
2021/07/24 11:55:10;;;;;;;;;;;31.10;78.20;;;;;;1300673;22;20192;-81
2021/07/24 11:58:02;;;;;;;;;;;31.00;77.70;;;;;;2054513;22;19946;-82
2021/07/24 12:03:49;;;;;;;;;;;31.00;79.90;;;;;;2070947;22;19931;-82
2021/07/24 12:06:17;;;;;;;;;;;30.90;76.20;;;;;;3678678;22;20917;31
2021/07/24 12:12:09;;;;;;;;;;;30.80;76.00;;;;;;2047169;22;19943;-80
2021/07/24 12:17:51;;;;;;;;;;;30.70;77.60;;;;;;2065098;22;19957;-81
2021/07/24 12:23:18;;;;;;;;;;;30.80;78.00;;;;;;1910842;22;20096;-81
2021/07/24 12:29:05;;;;;;;;;;;30.60;77.80;;;;;;2061737;22;19951;-82
2021/07/24 12:34:49;;;;;;;;;;;30.50;77.40;;;;;;2068338;22;19961;-83
2021/07/24 12:37:29;;;;;;;;;;;30.40;76.00;;;;;;3940939;22;19929;-82
2021/07/24 12:40:22;;;;;;;;;;;30.30;76.30;;;;;;2059526;22;19936;-84
2021/07/24 12:52:02;;;;;;;;;;;30.40;76.80;;;;;;2063227;22;19939;-82
2021/07/24 12:54:32;;;;;;;;;;;30.20;75.20;;;;;;3868909;22;20001;31
2021/07/24 13:06:07;;;;;;;;;;;29.70;77.10;;;;;;2049493;22;19998;-81
2021/07/24 13:11:54;;;;;;;;;;;29.60;79.30;;;;;;2060238;22;19936;-81
2021/07/24 13:17:41;;;;;;;;;;;29.70;76.00;;;;;;2066474;22;19931;-83
2021/07/24 13:20:11;;;;;;;;;;;29.80;79.00;;;;;;3691490;22;20949;31
2021/07/24 13:22:48;;;;;;;;;;;29.80;77.60;;;;;;1220598;22;20094;-81
2021/07/24 13:33:39;;;;;;;;;;;30.00;76.60;;;;;;1712458;22;21285;31
2021/07/24 13:36:33;;;;;;;;;;;30.00;75.50;;;;;;2037443;22;19939;-83
2021/07/24 13:41:58;;;;;;;;;;;30.00;75.90;;;;;;1532054;22;21982;-82
2021/07/24 13:44:35;;;;;;;;;;;30.10;76.30;;;;;;1297852;22;20077;-82
2021/07/24 13:47:27;;;;;;;;;;;30.10;76.10;;;;;;2058783;22;19937;-82
2021/07/24 13:55:56;;;;;;;;;;;30.10;76.50;;;;;;2065974;22;19983;-82
2021/07/24 14:01:28;;;;;;;;;;;30.00;76.80;;;;;;1530057;22;22037;-82
2021/07/24 14:07:09;;;;;;;;;;;29.90;76.40;;;;;;2053996;22;19947;-83
2021/07/24 14:12:56;;;;;;;;;;;29.80;77.00;;;;;;2065759;22;19951;-83
2021/07/24 14:18:28;;;;;;;;;;;29.80;77.00;;;;;;1532956;22;21940;-81
2021/07/24 14:21:20;;;;;;;;;;;29.90;76.90;;;;;;2053375;22;19935;-83
2021/07/24 14:27:07;;;;;;;;;;;29.80;78.50;;;;;;2065499;22;19931;-81
2021/07/24 14:35:56;;;;;;;;;;;29.80;77.00;;;;;;2055831;22;20120;-83
2021/07/24 14:41:43;;;;;;;;;;;29.70;75.70;;;;;;2053651;22;19979;-82
2021/07/24 14:50:32;;;;;;;;;;;29.70;75.60;;;;;;2054518;22;19951;-82
2021/07/24 14:56:14;;;;;;;;;;;29.70;76.10;;;;;;2047470;23;19936;-82
2021/07/24 15:01:54;;;;;;;;;;;29.80;77.30;;;;;;1447994;23;21403;-82
2021/07/24 15:04:47;;;;;;;;;;;29.80;75.50;;;;;;2068037;22;20002;-82
2021/07/24 15:10:04;;;;;;;;;;;29.70;75.90;;;;;;1908130;22;20073;-81
2021/07/24 15:15:51;;;;;;;;;;;29.70;76.80;;;;;;2060289;22;19951;-83
2021/07/24 15:21:14;;;;;;;;;;;29.60;74.30;;;;;;1691560;22;20076;-84
2021/07/24 15:24:08;;;;;;;;;;;29.60;74.70;;;;;;2052199;22;20988;-83
2021/07/24 15:29:48;;;;;;;;;;;29.40;73.40;;;;;;2067130;22;19939;-82
2021/07/24 15:32:18;;;;;;;;;;;29.40;73.70;;;;;;3803754;22;19951;-84
2021/07/24 15:37:51;;;;;;;;;;;29.40;73.40;;;;;;1305428;22;20073;-82
2021/07/24 15:40:21;;;;;;;;;;;29.40;74.80;;;;;;1932497;22;21711;31
2021/07/24 15:46:01;;;;;;;;;;;29.40;74.60;;;;;;2057596;22;19931;-82
2021/07/24 15:48:30;;;;;;;;;;;29.30;74.30;;;;;;3678222;22;20811;31
2021/07/24 15:50:58;;;;;;;;;;;29.40;76.70;;;;;;1674966;22;20792;-83
2021/07/24 15:56:46;;;;;;;;;;;29.30;76.50;;;;;;2057754;22;19936;-81
2021/07/24 16:02:26;;;;;;;;;;;29.30;76.50;;;;;;2062009;22;19946;-83
2021/07/24 16:04:55;;;;;;;;;;;29.30;76.80;;;;;;3686456;22;20857;31
2021/07/24 16:07:47;;;;;;;;;;;29.20;76.70;;;;;;2050540;22;19941;-82
2021/07/24 16:10:43;;;;;;;;;;;29.20;76.50;;;;;;2054489;22;19932;-82
2021/07/24 16:16:23;;;;;;;;;;;29.20;76.90;;;;;;2066659;22;20223;-82
2021/07/24 16:22:03;;;;;;;;;;;29.10;74.80;;;;;;2066491;22;19935;-82
2021/07/24 16:33:25;;;;;;;;;;;29.00;76.50;;;;;;1299160;22;20093;-83
2021/07/24 16:36:17;;;;;;;;;;;29.00;77.00;;;;;;2059194;22;19934;-83
2021/07/24 16:41:57;;;;;;;;;;;28.90;75.50;;;;;;2061306;22;19989;-82
2021/07/24 16:47:37;;;;;;;;;;;28.80;76.30;;;;;;2061941;22;19931;-82
2021/07/24 16:53:40;;;;;;;;;;;28.70;78.50;;;;;;2057520;22;19988;-80
2021/07/24 16:59:31;;;;;;;;;;;28.70;78.70;;;;;;2050508;22;20105;-82
2021/07/24 17:08:13;;;;;;;;;;;28.60;78.80;;;;;;2065800;22;19993;-83
2021/07/24 17:16:24;;;;;;;;;;;28.40;80.10;;;;;;1683379;22;20088;-81
2021/07/24 17:19:18;;;;;;;;;;;28.40;78.90;;;;;;2062613;22;19937;-82
2021/07/24 17:25:05;;;;;;;;;;;28.30;80.10;;;;;;2055459;22;19932;-82
2021/07/24 17:30:22;;;;;;;;;;;28.20;82.20;;;;;;1677950;22;20077;-81
2021/07/24 17:32:50;;;;;;;;;;;28.20;82.80;;;;;;1919100;22;21298;31
2021/07/24 17:38:38;;;;;;;;;;;28.10;83.20;;;;;;2066838;22;19931;-81
2021/07/24 17:47:05;;;;;;;;;;;27.90;84.20;;;;;;1296929;22;20116;-81
2021/07/24 17:49:58;;;;;;;;;;;27.90;84.40;;;;;;2061006;22;19931;-81
2021/07/24 17:52:26;;;;;;;;;;;27.90;84.30;;;;;;3700699;22;20808;31
2021/07/24 17:54:54;;;;;;;;;;;27.80;83.90;;;;;;1930764;22;21260;31
2021/07/24 17:57:48;;;;;;;;;;;27.80;84.10;;;;;;2054862;22;19935;-81
2021/07/24 18:14:54;;;;;;;;;;;27.50;85.00;;;;;;2017009;22;21139;31
2021/07/24 18:17:47;;;;;;;;;;;27.50;85.00;;;;;;2057146;22;20048;-82
2021/07/24 18:26:16;;;;;;;;;;;27.20;85.80;;;;;;1287892;23;20110;-82
2021/07/24 18:29:09;;;;;;;;;;;27.20;86.00;;;;;;2053199;22;19935;-83
2021/07/24 18:37:52;;;;;;;;;;;26.90;86.50;;;;;;2079448;22;21667;-84
2021/07/24 18:43:16;;;;;;;;;;;26.70;87.10;;;;;;1916244;22;20065;-82
2021/07/24 18:46:08;;;;;;;;;;;26.70;87.50;;;;;;2058309;22;19935;-82
2021/07/24 18:51:50;;;;;;;;;;;26.60;88.00;;;;;;2076337;22;19984;-83
2021/07/24 18:57:31;;;;;;;;;;;26.40;88.60;;;;;;2066262;22;20001;-83
2021/07/24 19:03:18;;;;;;;;;;;26.20;89.20;;;;;;2063049;22;19963;-84
2021/07/24 19:20:46;;;;;;;;;;;25.60;91.00;;;;;;2055342;22;19932;-84
2021/07/24 19:26:12;;;;;;;;;;;25.50;91.10;;;;;;1300843;22;20069;-81
2021/07/24 19:35:05;;;;;;;;;;;25.20;91.50;;;;;;2063369;22;19953;-85
2021/07/24 19:40:22;;;;;;;;;;;25.10;91.70;;;;;;1916649;22;20066;-83
2021/07/24 19:43:00;;;;;;;;;;;25.00;91.90;;;;;;1532903;22;22250;-82
2021/07/24 19:51:12;;;;;;;;;;;24.80;92.10;;;;;;1924370;22;20065;-81
2021/07/24 19:59:59;;;;;;;;;;;24.60;92.30;;;;;;2068597;22;19939;-82
2021/07/24 20:05:46;;;;;;;;;;;24.50;92.60;;;;;;2067480;22;19989;-82
2021/07/24 20:08:15;;;;;;;;;;;24.40;92.70;;;;;;1912811;22;20074;-82
2021/07/24 20:10:45;;;;;;;;;;;24.40;92.90;;;;;;2016388;22;21115;31
2021/07/24 20:13:38;;;;;;;;;;;24.30;93.10;;;;;;2058490;22;19931;-82
2021/07/24 20:18:55;;;;;;;;;;;24.10;93.40;;;;;;1800091;22;21336;31
2021/07/24 20:24:43;;;;;;;;;;;24.00;93.40;;;;;;2076250;22;19952;-82
2021/07/24 20:30:32;;;;;;;;;;;23.80;94.20;;;;;;2072779;22;21532;-83
2021/07/24 20:36:20;;;;;;;;;;;23.70;94.70;;;;;;2071805;22;19931;-84
2021/07/24 20:42:08;;;;;;;;;;;23.50;95.00;;;;;;2072932;22;21768;-85
2021/07/24 20:44:37;;;;;;;;;;;23.40;95.10;;;;;;3816252;22;21610;31
2021/07/24 21:01:47;;;;;;;;;;;23.10;95.90;;;;;;1870520;22;21332;31
2021/07/24 21:04:18;;;;;;;;;;;23.00;96.00;;;;;;1485966;22;21337;31
2021/07/24 21:06:54;;;;;;;;;;;23.00;96.20;;;;;;2132938;22;20254;-85
2021/07/24 21:12:46;;;;;;;;;;;22.80;96.50;;;;;;2071154;22;19939;-84
2021/07/24 21:21:29;;;;;;;;;;;22.60;97.30;;;;;;1308482;22;20064;-82
2021/07/24 21:24:22;;;;;;;;;;;22.50;97.90;;;;;;2058794;22;19931;-83
2021/07/24 21:26:51;;;;;;;;;;;22.40;97.70;;;;;;3681691;22;19979;-81
2021/07/24 21:29:43;;;;;;;;;;;22.30;97.80;;;;;;2052833;22;19947;-83
2021/07/24 21:32:15;;;;;;;;;;;22.30;97.60;;;;;;3931565;22;19989;31
2021/07/24 21:35:08;;;;;;;;;;;22.30;98.10;;;;;;2067639;22;19934;-83
2021/07/24 21:40:48;;;;;;;;;;;22.20;98.30;;;;;;1919658;22;20065;-82
2021/07/24 21:43:40;;;;;;;;;;;22.20;98.70;;;;;;2058086;22;19967;-83
2021/07/24 21:49:03;;;;;;;;;;;22.10;98.80;;;;;;2133565;22;24846;-84
2021/07/24 21:51:55;;;;;;;;;;;22.10;98.90;;;;;;4072422;22;19935;-83
2021/07/24 21:57:43;;;;;;;;;;;22.00;99.70;;;;;;2080043;22;21740;-84
2021/07/24 22:03:25;;;;;;;;;;;21.90;99.90;;;;;;2081351;22;19959;-82
2021/07/24 22:09:06;;;;;;;;;;;21.90;99.90;;;;;;2078025;22;19931;-85
2021/07/24 22:14:30;;;;;;;;;;;21.80;99.90;;;;;;1926359;22;20064;-85
2021/07/24 22:20:11;;;;;;;;;;;21.60;99.90;;;;;;1307189;22;20179;-84
2021/07/24 22:22:53;;;;;;;;;;;21.60;99.90;;;;;;1679114;22;20079;-83
2021/07/24 22:25:45;;;;;;;;;;;21.60;99.90;;;;;;2040225;22;20748;-84
2021/07/24 22:31:10;;;;;;;;;;;21.40;99.90;;;;;;1721224;22;21377;31
2021/07/24 22:36:37;;;;;;;;;;;21.40;99.90;;;;;;1310108;22;20274;-84
2021/07/24 22:39:29;;;;;;;;;;;21.40;99.90;;;;;;2075108;22;19934;-82
2021/07/24 22:45:09;;;;;;;;;;;21.30;99.90;;;;;;2070038;22;19982;-84
2021/07/24 22:48:04;;;;;;;;;;;21.30;99.90;;;;;;3695797;22;20837;31
2021/07/24 22:53:51;;;;;;;;;;;21.30;99.90;;;;;;2071587;22;19931;-82
2021/07/24 22:56:20;;;;;;;;;;;21.20;99.90;;;;;;3712380;22;20983;31
2021/07/24 22:59:13;;;;;;;;;;;21.10;99.90;;;;;;2073890;22;19945;-84
2021/07/24 23:05:00;;;;;;;;;;;21.10;99.90;;;;;;2070510;22;19931;-82
2021/07/24 23:10:42;;;;;;;;;;;20.90;99.90;;;;;;2077607;22;19946;-83
2021/07/24 23:16:42;;;;;;;;;;;20.80;99.90;;;;;;2083358;22;19937;-83
2021/07/24 23:22:23;;;;;;;;;;;20.70;99.90;;;;;;2074111;22;21713;-82
2021/07/24 23:24:56;;;;;;;;;;;20.70;99.90;;;;;;3713202;22;20844;31
2021/07/24 23:30:24;;;;;;;;;;;20.50;99.90;;;;;;1696924;22;20076;-83
2021/07/24 23:36:11;;;;;;;;;;;20.50;99.90;;;;;;2070299;22;19952;-83
2021/07/24 23:48:08;;;;;;;;;;;20.40;99.90;;;;;;2070475;22;20064;-83
